sensor_id;sensor_type;location;lat;lon;timestamp;P1;durP1;ratioP1;P2;durP2;ratioP2
5153;SDS011;2595;53.584;10.084;2022-08-21T00:00:34;5.30;;;5.00;;
5153;SDS011;2595;53.584;10.084;2022-08-21T00:03:04;5.63;;;5.13;;
5153;SDS011;2595;53.584;10.084;2022-08-21T00:05:32;6.70;;;5.37;;
5153;SDS011;2595;53.584;10.084;2022-08-21T00:08:01;6.20;;;5.60;;
5153;SDS011;2595;53.584;10.084;2022-08-21T00:10:27;6.10;;;5.60;;
5153;SDS011;2595;53.584;10.084;2022-08-21T00:12:53;5.90;;;5.40;;
5153;SDS011;2595;53.584;10.084;2022-08-21T00:15:21;6.83;;;5.83;;
5153;SDS011;2595;53.584;10.084;2022-08-21T00:17:51;5.33;;;4.93;;
5153;SDS011;2595;53.584;10.084;2022-08-21T00:20:17;7.80;;;6.37;;
5153;SDS011;2595;53.584;10.084;2022-08-21T00:22:43;5.50;;;5.10;;
5153;SDS011;2595;53.584;10.084;2022-08-21T00:25:09;9.10;;;5.50;;
5153;SDS011;2595;53.584;10.084;2022-08-21T00:27:35;6.20;;;5.00;;
5153;SDS011;2595;53.584;10.084;2022-08-21T00:30:03;6.73;;;6.13;;
5153;SDS011;2595;53.584;10.084;2022-08-21T00:32:30;6.20;;;5.60;;
5153;SDS011;2595;53.584;10.084;2022-08-21T00:34:56;5.93;;;5.50;;
5153;SDS011;2595;53.584;10.084;2022-08-21T00:37:23;6.00;;;5.40;;
5153;SDS011;2595;53.584;10.084;2022-08-21T00:39:49;5.70;;;5.30;;
5153;SDS011;2595;53.584;10.084;2022-08-21T00:42:15;5.90;;;5.40;;
5153;SDS011;2595;53.584;10.084;2022-08-21T00:44:45;7.90;;;6.00;;
5153;SDS011;2595;53.584;10.084;2022-08-21T00:47:12;10.73;;;5.83;;
5153;SDS011;2595;53.584;10.084;2022-08-21T00:49:38;11.03;;;5.80;;
5153;SDS011;2595;53.584;10.084;2022-08-21T00:52:05;5.97;;;5.57;;
5153;SDS011;2595;53.584;10.084;2022-08-21T00:54:37;6.07;;;5.53;;
5153;SDS011;2595;53.584;10.084;2022-08-21T00:57:06;6.37;;;5.77;;
5153;SDS011;2595;53.584;10.084;2022-08-21T00:59:36;6.27;;;5.87;;
5153;SDS011;2595;53.584;10.084;2022-08-21T01:02:04;6.20;;;5.70;;
5153;SDS011;2595;53.584;10.084;2022-08-21T01:04:32;6.10;;;5.70;;
5153;SDS011;2595;53.584;10.084;2022-08-21T01:06:58;6.20;;;5.70;;
5153;SDS011;2595;53.584;10.084;2022-08-21T01:09:24;5.13;;;4.83;;
5153;SDS011;2595;53.584;10.084;2022-08-21T01:11:51;6.20;;;5.70;;
5153;SDS011;2595;53.584;10.084;2022-08-21T01:14:17;6.33;;;5.93;;
5153;SDS011;2595;53.584;10.084;2022-08-21T01:16:45;6.77;;;5.33;;
5153;SDS011;2595;53.584;10.084;2022-08-21T01:19:13;5.90;;;5.40;;
5153;SDS011;2595;53.584;10.084;2022-08-21T01:21:39;5.37;;;4.97;;
5153;SDS011;2595;53.584;10.084;2022-08-21T01:24:05;6.10;;;5.70;;
5153;SDS011;2595;53.584;10.084;2022-08-21T01:26:32;9.47;;;6.37;;
5153;SDS011;2595;53.584;10.084;2022-08-21T01:29:07;6.83;;;6.23;;
5153;SDS011;2595;53.584;10.084;2022-08-21T01:31:35;6.80;;;6.40;;
5153;SDS011;2595;53.584;10.084;2022-08-21T01:34:02;5.80;;;5.40;;
5153;SDS011;2595;53.584;10.084;2022-08-21T01:36:29;6.60;;;6.00;;
5153;SDS011;2595;53.584;10.084;2022-08-21T01:38:55;5.33;;;5.03;;
5153;SDS011;2595;53.584;10.084;2022-08-21T01:41:21;6.00;;;5.50;;
5153;SDS011;2595;53.584;10.084;2022-08-21T01:43:46;6.60;;;5.93;;
5153;SDS011;2595;53.584;10.084;2022-08-21T01:46:13;7.00;;;6.40;;
5153;SDS011;2595;53.584;10.084;2022-08-21T01:48:39;6.67;;;6.00;;
5153;SDS011;2595;53.584;10.084;2022-08-21T01:51:05;6.23;;;5.80;;
5153;SDS011;2595;53.584;10.084;2022-08-21T01:53:32;7.03;;;5.60;;
5153;SDS011;2595;53.584;10.084;2022-08-21T01:56:00;6.10;;;5.17;;
5153;SDS011;2595;53.584;10.084;2022-08-21T01:58:26;9.17;;;5.20;;
5153;SDS011;2595;53.584;10.084;2022-08-21T02:00:52;6.67;;;6.10;;
5153;SDS011;2595;53.584;10.084;2022-08-21T02:03:17;6.00;;;5.50;;
5153;SDS011;2595;53.584;10.084;2022-08-21T02:05:43;5.90;;;5.47;;
5153;SDS011;2595;53.584;10.084;2022-08-21T02:08:08;7.17;;;6.53;;
5153;SDS011;2595;53.584;10.084;2022-08-21T02:10:34;5.93;;;5.30;;
5153;SDS011;2595;53.584;10.084;2022-08-21T02:13:00;5.77;;;5.37;;
5153;SDS011;2595;53.584;10.084;2022-08-21T02:15:26;5.50;;;5.10;;
5153;SDS011;2595;53.584;10.084;2022-08-21T02:17:54;6.30;;;5.80;;
5153;SDS011;2595;53.584;10.084;2022-08-21T02:20:23;5.80;;;5.40;;
5153;SDS011;2595;53.584;10.084;2022-08-21T02:22:50;6.07;;;5.67;;
5153;SDS011;2595;53.584;10.084;2022-08-21T02:25:16;7.30;;;5.63;;
5153;SDS011;2595;53.584;10.084;2022-08-21T02:27:43;6.70;;;5.80;;
5153;SDS011;2595;53.584;10.084;2022-08-21T02:30:12;5.83;;;5.30;;
5153;SDS011;2595;53.584;10.084;2022-08-21T02:32:40;6.23;;;5.73;;
5153;SDS011;2595;53.584;10.084;2022-08-21T02:35:06;7.07;;;6.40;;
5153;SDS011;2595;53.584;10.084;2022-08-21T02:37:32;6.13;;;5.60;;
5153;SDS011;2595;53.584;10.084;2022-08-21T02:39:59;6.10;;;5.70;;
5153;SDS011;2595;53.584;10.084;2022-08-21T02:42:26;7.57;;;6.20;;
5153;SDS011;2595;53.584;10.084;2022-08-21T02:44:51;6.07;;;5.20;;
5153;SDS011;2595;53.584;10.084;2022-08-21T02:47:17;5.30;;;5.00;;
5153;SDS011;2595;53.584;10.084;2022-08-21T02:49:43;5.83;;;5.20;;
5153;SDS011;2595;53.584;10.084;2022-08-21T02:52:08;6.37;;;5.87;;
5153;SDS011;2595;53.584;10.084;2022-08-21T02:54:34;5.47;;;5.07;;
5153;SDS011;2595;53.584;10.084;2022-08-21T02:56:59;5.40;;;5.00;;
5153;SDS011;2595;53.584;10.084;2022-08-21T02:59:25;8.03;;;5.90;;
5153;SDS011;2595;53.584;10.084;2022-08-21T03:01:51;6.30;;;5.90;;
5153;SDS011;2595;53.584;10.084;2022-08-21T03:04:16;5.60;;;5.10;;
5153;SDS011;2595;53.584;10.084;2022-08-21T03:06:42;5.17;;;4.77;;
5153;SDS011;2595;53.584;10.084;2022-08-21T03:09:08;6.30;;;5.23;;
5153;SDS011;2595;53.584;10.084;2022-08-21T03:11:33;5.57;;;5.17;;
5153;SDS011;2595;53.584;10.084;2022-08-21T03:14:01;5.93;;;5.43;;
5153;SDS011;2595;53.584;10.084;2022-08-21T03:16:27;6.63;;;6.10;;
5153;SDS011;2595;53.584;10.084;2022-08-21T03:18:53;4.87;;;4.47;;
5153;SDS011;2595;53.584;10.084;2022-08-21T03:21:18;5.20;;;4.90;;
5153;SDS011;2595;53.584;10.084;2022-08-21T03:23:44;5.13;;;4.03;;
5153;SDS011;2595;53.584;10.084;2022-08-21T03:26:10;5.07;;;4.77;;
5153;SDS011;2595;53.584;10.084;2022-08-21T03:28:36;4.90;;;4.60;;
5153;SDS011;2595;53.584;10.084;2022-08-21T03:31:02;5.47;;;5.07;;
5153;SDS011;2595;53.584;10.084;2022-08-21T03:33:27;5.17;;;4.83;;
5153;SDS011;2595;53.584;10.084;2022-08-21T03:35:58;5.03;;;4.73;;
5153;SDS011;2595;53.584;10.084;2022-08-21T03:38:30;5.07;;;4.77;;
5153;SDS011;2595;53.584;10.084;2022-08-21T03:40:57;5.93;;;5.43;;
5153;SDS011;2595;53.584;10.084;2022-08-21T03:43:23;5.50;;;5.10;;
5153;SDS011;2595;53.584;10.084;2022-08-21T03:45:49;4.70;;;4.13;;
5153;SDS011;2595;53.584;10.084;2022-08-21T03:48:15;5.23;;;4.83;;
5153;SDS011;2595;53.584;10.084;2022-08-21T03:50:41;5.70;;;5.10;;
5153;SDS011;2595;53.584;10.084;2022-08-21T03:53:09;5.17;;;4.60;;
5153;SDS011;2595;53.584;10.084;2022-08-21T03:55:36;6.03;;;5.20;;
5153;SDS011;2595;53.584;10.084;2022-08-21T03:58:02;4.27;;;3.97;;
5153;SDS011;2595;53.584;10.084;2022-08-21T04:00:28;5.70;;;5.20;;
5153;SDS011;2595;53.584;10.084;2022-08-21T04:02:54;5.17;;;4.70;;
5153;SDS011;2595;53.584;10.084;2022-08-21T04:05:20;5.20;;;4.80;;
5153;SDS011;2595;53.584;10.084;2022-08-21T04:07:53;5.53;;;4.63;;
5153;SDS011;2595;53.584;10.084;2022-08-21T04:10:20;4.87;;;4.43;;
5153;SDS011;2595;53.584;10.084;2022-08-21T04:12:46;4.63;;;4.23;;
5153;SDS011;2595;53.584;10.084;2022-08-21T04:15:12;4.90;;;4.50;;
5153;SDS011;2595;53.584;10.084;2022-08-21T04:17:38;4.50;;;4.17;;
5153;SDS011;2595;53.584;10.084;2022-08-21T04:20:04;4.73;;;4.43;;
5153;SDS011;2595;53.584;10.084;2022-08-21T04:22:30;6.87;;;4.63;;
5153;SDS011;2595;53.584;10.084;2022-08-21T04:24:55;4.43;;;4.13;;
5153;SDS011;2595;53.584;10.084;2022-08-21T04:27:21;4.43;;;4.13;;
5153;SDS011;2595;53.584;10.084;2022-08-21T04:29:47;4.30;;;4.10;;
5153;SDS011;2595;53.584;10.084;2022-08-21T04:32:12;5.30;;;4.93;;
5153;SDS011;2595;53.584;10.084;2022-08-21T04:34:38;5.03;;;4.47;;
5153;SDS011;2595;53.584;10.084;2022-08-21T04:37:03;4.80;;;3.90;;
5153;SDS011;2595;53.584;10.084;2022-08-21T04:39:29;5.43;;;4.00;;
5153;SDS011;2595;53.584;10.084;2022-08-21T04:41:54;4.17;;;3.97;;
5153;SDS011;2595;53.584;10.084;2022-08-21T04:44:20;3.70;;;3.50;;
5153;SDS011;2595;53.584;10.084;2022-08-21T04:46:46;4.77;;;4.37;;
5153;SDS011;2595;53.584;10.084;2022-08-21T04:49:11;4.80;;;4.00;;
5153;SDS011;2595;53.584;10.084;2022-08-21T04:51:37;4.33;;;4.03;;
5153;SDS011;2595;53.584;10.084;2022-08-21T04:54:12;4.80;;;3.93;;
5153;SDS011;2595;53.584;10.084;2022-08-21T04:56:50;4.07;;;3.87;;
5153;SDS011;2595;53.584;10.084;2022-08-21T04:59:27;4.30;;;4.00;;
5153;SDS011;2595;53.584;10.084;2022-08-21T05:01:56;8.93;;;4.50;;
5153;SDS011;2595;53.584;10.084;2022-08-21T05:04:24;6.77;;;4.40;;
5153;SDS011;2595;53.584;10.084;2022-08-21T05:06:54;7.13;;;4.20;;
5153;SDS011;2595;53.584;10.084;2022-08-21T05:09:20;3.50;;;3.23;;
5153;SDS011;2595;53.584;10.084;2022-08-21T05:11:47;3.80;;;3.57;;
5153;SDS011;2595;53.584;10.084;2022-08-21T05:14:13;7.30;;;3.60;;
5153;SDS011;2595;53.584;10.084;2022-08-21T05:16:39;4.47;;;4.17;;
5153;SDS011;2595;53.584;10.084;2022-08-21T05:19:06;4.97;;;4.30;;
5153;SDS011;2595;53.584;10.084;2022-08-21T05:21:37;4.10;;;3.80;;
5153;SDS011;2595;53.584;10.084;2022-08-21T05:24:07;4.00;;;3.73;;
5153;SDS011;2595;53.584;10.084;2022-08-21T05:26:34;4.30;;;4.00;;
5153;SDS011;2595;53.584;10.084;2022-08-21T05:29:01;4.03;;;3.73;;
5153;SDS011;2595;53.584;10.084;2022-08-21T05:31:27;4.63;;;3.87;;
5153;SDS011;2595;53.584;10.084;2022-08-21T05:33:52;8.50;;;4.50;;
5153;SDS011;2595;53.584;10.084;2022-08-21T05:36:18;3.50;;;3.30;;
5153;SDS011;2595;53.584;10.084;2022-08-21T05:38:44;3.80;;;3.50;;
5153;SDS011;2595;53.584;10.084;2022-08-21T05:41:10;4.30;;;3.90;;
5153;SDS011;2595;53.584;10.084;2022-08-21T05:43:35;3.13;;;2.93;;
5153;SDS011;2595;53.584;10.084;2022-08-21T05:46:04;4.20;;;3.30;;
5153;SDS011;2595;53.584;10.084;2022-08-21T05:48:31;5.40;;;3.87;;
5153;SDS011;2595;53.584;10.084;2022-08-21T05:50:58;5.00;;;4.10;;
5153;SDS011;2595;53.584;10.084;2022-08-21T05:53:37;3.80;;;3.50;;
5153;SDS011;2595;53.584;10.084;2022-08-21T05:56:04;3.93;;;3.43;;
5153;SDS011;2595;53.584;10.084;2022-08-21T05:58:30;4.43;;;4.07;;
5153;SDS011;2595;53.584;10.084;2022-08-21T06:00:57;3.53;;;3.23;;
5153;SDS011;2595;53.584;10.084;2022-08-21T06:03:26;3.50;;;3.30;;
5153;SDS011;2595;53.584;10.084;2022-08-21T06:05:53;4.17;;;3.83;;
5153;SDS011;2595;53.584;10.084;2022-08-21T06:08:19;3.87;;;3.67;;
5153;SDS011;2595;53.584;10.084;2022-08-21T06:10:46;5.00;;;4.20;;
5153;SDS011;2595;53.584;10.084;2022-08-21T06:13:13;3.40;;;3.20;;
5153;SDS011;2595;53.584;10.084;2022-08-21T06:15:40;5.87;;;3.60;;
5153;SDS011;2595;53.584;10.084;2022-08-21T06:18:06;3.63;;;3.43;;
5153;SDS011;2595;53.584;10.084;2022-08-21T06:20:32;4.80;;;4.03;;
5153;SDS011;2595;53.584;10.084;2022-08-21T06:22:58;5.57;;;3.70;;
5153;SDS011;2595;53.584;10.084;2022-08-21T06:25:24;4.20;;;3.80;;
5153;SDS011;2595;53.584;10.084;2022-08-21T06:27:50;4.00;;;3.50;;
5153;SDS011;2595;53.584;10.084;2022-08-21T06:30:16;3.40;;;3.10;;
5153;SDS011;2595;53.584;10.084;2022-08-21T06:32:42;3.83;;;3.53;;
5153;SDS011;2595;53.584;10.084;2022-08-21T06:35:07;3.43;;;3.03;;
5153;SDS011;2595;53.584;10.084;2022-08-21T06:37:33;3.40;;;3.20;;
5153;SDS011;2595;53.584;10.084;2022-08-21T06:39:59;7.57;;;2.70;;
5153;SDS011;2595;53.584;10.084;2022-08-21T06:42:25;3.30;;;3.10;;
5153;SDS011;2595;53.584;10.084;2022-08-21T06:44:52;5.83;;;3.10;;
5153;SDS011;2595;53.584;10.084;2022-08-21T06:47:18;5.63;;;3.40;;
5153;SDS011;2595;53.584;10.084;2022-08-21T06:49:44;3.30;;;3.10;;
5153;SDS011;2595;53.584;10.084;2022-08-21T06:52:10;3.70;;;3.40;;
5153;SDS011;2595;53.584;10.084;2022-08-21T06:54:37;7.07;;;3.20;;
5153;SDS011;2595;53.584;10.084;2022-08-21T06:57:04;3.93;;;3.27;;
5153;SDS011;2595;53.584;10.084;2022-08-21T06:59:30;3.53;;;3.20;;
5153;SDS011;2595;53.584;10.084;2022-08-21T07:01:57;3.07;;;2.80;;
5153;SDS011;2595;53.584;10.084;2022-08-21T07:04:23;3.30;;;3.10;;
5153;SDS011;2595;53.584;10.084;2022-08-21T07:06:49;3.33;;;3.10;;
5153;SDS011;2595;53.584;10.084;2022-08-21T07:09:15;3.23;;;2.93;;
5153;SDS011;2595;53.584;10.084;2022-08-21T07:11:40;4.87;;;2.73;;
5153;SDS011;2595;53.584;10.084;2022-08-21T07:14:06;3.10;;;2.70;;
5153;SDS011;2595;53.584;10.084;2022-08-21T07:16:32;3.00;;;2.10;;
5153;SDS011;2595;53.584;10.084;2022-08-21T07:18:58;2.77;;;2.50;;
5153;SDS011;2595;53.584;10.084;2022-08-21T07:21:23;5.10;;;2.87;;
5153;SDS011;2595;53.584;10.084;2022-08-21T07:23:50;2.90;;;2.70;;
5153;SDS011;2595;53.584;10.084;2022-08-21T07:26:18;2.80;;;2.70;;
5153;SDS011;2595;53.584;10.084;2022-08-21T07:28:46;3.03;;;2.73;;
5153;SDS011;2595;53.584;10.084;2022-08-21T07:31:13;2.30;;;2.10;;
5153;SDS011;2595;53.584;10.084;2022-08-21T07:33:42;3.00;;;2.37;;
5153;SDS011;2595;53.584;10.084;2022-08-21T07:36:07;3.00;;;2.67;;
5153;SDS011;2595;53.584;10.084;2022-08-21T07:38:34;2.90;;;2.70;;
5153;SDS011;2595;53.584;10.084;2022-08-21T07:41:00;2.43;;;2.23;;
5153;SDS011;2595;53.584;10.084;2022-08-21T07:43:28;2.47;;;2.10;;
5153;SDS011;2595;53.584;10.084;2022-08-21T07:45:54;4.17;;;2.60;;
5153;SDS011;2595;53.584;10.084;2022-08-21T07:48:20;2.30;;;2.10;;
5153;SDS011;2595;53.584;10.084;2022-08-21T07:50:47;3.10;;;2.90;;
5153;SDS011;2595;53.584;10.084;2022-08-21T07:53:13;3.40;;;2.33;;
5153;SDS011;2595;53.584;10.084;2022-08-21T07:55:39;2.70;;;2.10;;
5153;SDS011;2595;53.584;10.084;2022-08-21T07:58:05;3.10;;;2.40;;
5153;SDS011;2595;53.584;10.084;2022-08-21T08:00:31;5.83;;;1.87;;
5153;SDS011;2595;53.584;10.084;2022-08-21T08:02:58;2.90;;;2.43;;
5153;SDS011;2595;53.584;10.084;2022-08-21T08:05:26;3.87;;;2.70;;
5153;SDS011;2595;53.584;10.084;2022-08-21T08:07:52;4.40;;;2.30;;
5153;SDS011;2595;53.584;10.084;2022-08-21T08:10:19;2.43;;;2.23;;
5153;SDS011;2595;53.584;10.084;2022-08-21T08:12:45;3.83;;;2.23;;
5153;SDS011;2595;53.584;10.084;2022-08-21T08:15:14;3.00;;;2.53;;
5153;SDS011;2595;53.584;10.084;2022-08-21T08:17:41;2.73;;;2.53;;
5153;SDS011;2595;53.584;10.084;2022-08-21T08:20:07;4.07;;;2.20;;
5153;SDS011;2595;53.584;10.084;2022-08-21T08:22:35;5.23;;;2.10;;
5153;SDS011;2595;53.584;10.084;2022-08-21T08:25:02;4.03;;;3.07;;
5153;SDS011;2595;53.584;10.084;2022-08-21T08:27:29;5.40;;;2.30;;
5153;SDS011;2595;53.584;10.084;2022-08-21T08:29:55;2.70;;;1.83;;
5153;SDS011;2595;53.584;10.084;2022-08-21T08:32:20;5.37;;;2.10;;
5153;SDS011;2595;53.584;10.084;2022-08-21T08:34:46;2.60;;;2.20;;
5153;SDS011;2595;53.584;10.084;2022-08-21T08:37:13;3.10;;;2.90;;
5153;SDS011;2595;53.584;10.084;2022-08-21T08:39:39;3.07;;;2.87;;
5153;SDS011;2595;53.584;10.084;2022-08-21T08:42:18;4.63;;;1.93;;
5153;SDS011;2595;53.584;10.084;2022-08-21T08:44:50;2.60;;;2.40;;
5153;SDS011;2595;53.584;10.084;2022-08-21T08:47:23;4.07;;;2.30;;
5153;SDS011;2595;53.584;10.084;2022-08-21T08:49:58;2.70;;;2.50;;
5153;SDS011;2595;53.584;10.084;2022-08-21T08:52:54;4.50;;;3.10;;
5153;SDS011;2595;53.584;10.084;2022-08-21T08:58:03;3.60;;;2.10;;
5153;SDS011;2595;53.584;10.084;2022-08-21T09:00:30;3.90;;;2.17;;
5153;SDS011;2595;53.584;10.084;2022-08-21T09:02:57;6.07;;;2.50;;
5153;SDS011;2595;53.584;10.084;2022-08-21T09:05:26;3.67;;;2.37;;
5153;SDS011;2595;53.584;10.084;2022-08-21T09:08:07;4.77;;;2.33;;
5153;SDS011;2595;53.584;10.084;2022-08-21T09:26:57;4.47;;;2.37;;
5153;SDS011;2595;53.584;10.084;2022-08-21T09:29:42;4.70;;;2.53;;
5153;SDS011;2595;53.584;10.084;2022-08-21T09:32:14;3.93;;;2.10;;
5153;SDS011;2595;53.584;10.084;2022-08-21T09:34:54;3.20;;;2.77;;
5153;SDS011;2595;53.584;10.084;2022-08-21T09:37:20;5.30;;;2.17;;
5153;SDS011;2595;53.584;10.084;2022-08-21T09:39:45;4.23;;;2.30;;
5153;SDS011;2595;53.584;10.084;2022-08-21T09:42:11;4.13;;;2.63;;
5153;SDS011;2595;53.584;10.084;2022-08-21T09:44:48;8.70;;;3.00;;
5153;SDS011;2595;53.584;10.084;2022-08-21T09:47:14;3.50;;;2.60;;
5153;SDS011;2595;53.584;10.084;2022-08-21T09:49:43;2.87;;;2.50;;
5153;SDS011;2595;53.584;10.084;2022-08-21T09:52:17;3.00;;;2.47;;
5153;SDS011;2595;53.584;10.084;2022-08-21T09:54:46;3.00;;;2.70;;
5153;SDS011;2595;53.584;10.084;2022-08-21T09:57:23;4.60;;;2.53;;
5153;SDS011;2595;53.584;10.084;2022-08-21T10:00:49;6.90;;;2.70;;
5153;SDS011;2595;53.584;10.084;2022-08-21T10:03:08;3.60;;;2.93;;
5153;SDS011;2595;53.584;10.084;2022-08-21T10:05:39;5.90;;;3.03;;
5153;SDS011;2595;53.584;10.084;2022-08-21T10:08:21;4.70;;;3.10;;
5153;SDS011;2595;53.584;10.084;2022-08-21T10:10:56;3.37;;;3.07;;
5153;SDS011;2595;53.584;10.084;2022-08-21T10:16:10;5.50;;;3.33;;
5153;SDS011;2595;53.584;10.084;2022-08-21T10:19:22;3.93;;;2.93;;
5153;SDS011;2595;53.584;10.084;2022-08-21T10:24:42;3.77;;;2.90;;
5153;SDS011;2595;53.584;10.084;2022-08-21T10:35:24;4.90;;;2.60;;
5153;SDS011;2595;53.584;10.084;2022-08-21T10:38:06;6.10;;;3.13;;
5153;SDS011;2595;53.584;10.084;2022-08-21T10:48:47;3.60;;;2.37;;
5153;SDS011;2595;53.584;10.084;2022-08-21T10:56:35;3.17;;;2.87;;
5153;SDS011;2595;53.584;10.084;2022-08-21T10:59:15;2.40;;;2.20;;
5153;SDS011;2595;53.584;10.084;2022-08-21T11:01:54;6.70;;;2.23;;
5153;SDS011;2595;53.584;10.084;2022-08-21T11:07:22;8.03;;;2.70;;
5153;SDS011;2595;53.584;10.084;2022-08-21T11:09:57;4.93;;;2.33;;
5153;SDS011;2595;53.584;10.084;2022-08-21T11:15:38;7.43;;;2.60;;
5153;SDS011;2595;53.584;10.084;2022-08-21T11:18:17;2.00;;;1.90;;
5153;SDS011;2595;53.584;10.084;2022-08-21T11:26:25;1.83;;;1.50;;
5153;SDS011;2595;53.584;10.084;2022-08-21T11:29:05;2.03;;;1.93;;
5153;SDS011;2595;53.584;10.084;2022-08-21T11:37:10;4.60;;;2.10;;
5153;SDS011;2595;53.584;10.084;2022-08-21T11:39:46;2.50;;;2.20;;
5153;SDS011;2595;53.584;10.084;2022-08-21T11:45:12;3.40;;;1.97;;
5153;SDS011;2595;53.584;10.084;2022-08-21T11:47:54;3.23;;;2.80;;
5153;SDS011;2595;53.584;10.084;2022-08-21T11:50:35;3.30;;;2.07;;
5153;SDS011;2595;53.584;10.084;2022-08-21T11:53:10;2.60;;;1.63;;
5153;SDS011;2595;53.584;10.084;2022-08-21T11:55:55;2.43;;;1.80;;
5153;SDS011;2595;53.584;10.084;2022-08-21T11:58:32;4.00;;;1.73;;
5153;SDS011;2595;53.584;10.084;2022-08-21T12:01:08;1.93;;;1.83;;
5153;SDS011;2595;53.584;10.084;2022-08-21T12:04:46;4.60;;;2.27;;
5153;SDS011;2595;53.584;10.084;2022-08-21T12:07:10;3.70;;;2.30;;
5153;SDS011;2595;53.584;10.084;2022-08-21T12:09:38;2.47;;;2.00;;
5153;SDS011;2595;53.584;10.084;2022-08-21T12:12:12;2.10;;;1.90;;
5153;SDS011;2595;53.584;10.084;2022-08-21T12:14:49;1.53;;;1.43;;
5153;SDS011;2595;53.584;10.084;2022-08-21T12:17:34;2.03;;;1.40;;
5153;SDS011;2595;53.584;10.084;2022-08-21T12:25:46;2.77;;;1.90;;
5153;SDS011;2595;53.584;10.084;2022-08-21T12:28:25;4.40;;;1.60;;
5153;SDS011;2595;53.584;10.084;2022-08-21T12:30:53;2.70;;;2.40;;
5153;SDS011;2595;53.584;10.084;2022-08-21T12:35:45;2.90;;;1.43;;
5153;SDS011;2595;53.584;10.084;2022-08-21T12:38:15;1.60;;;1.50;;
5153;SDS011;2595;53.584;10.084;2022-08-21T12:43:21;3.00;;;1.63;;
5153;SDS011;2595;53.584;10.084;2022-08-21T12:45:58;2.43;;;2.10;;
5153;SDS011;2595;53.584;10.084;2022-08-21T12:48:29;2.20;;;2.00;;
5153;SDS011;2595;53.584;10.084;2022-08-21T12:51:16;2.57;;;1.80;;
5153;SDS011;2595;53.584;10.084;2022-08-21T12:56:20;2.60;;;2.37;;
5153;SDS011;2595;53.584;10.084;2022-08-21T12:58:53;3.90;;;2.10;;
5153;SDS011;2595;53.584;10.084;2022-08-21T13:01:33;3.97;;;1.90;;
5153;SDS011;2595;53.584;10.084;2022-08-21T13:04:07;2.20;;;1.50;;
5153;SDS011;2595;53.584;10.084;2022-08-21T13:06:39;1.83;;;1.67;;
5153;SDS011;2595;53.584;10.084;2022-08-21T13:09:11;1.77;;;1.60;;
5153;SDS011;2595;53.584;10.084;2022-08-21T13:11:42;2.90;;;1.67;;
5153;SDS011;2595;53.584;10.084;2022-08-21T13:14:14;2.50;;;1.57;;
5153;SDS011;2595;53.584;10.084;2022-08-21T13:16:57;1.43;;;1.30;;
5153;SDS011;2595;53.584;10.084;2022-08-21T13:19:24;4.10;;;1.53;;
5153;SDS011;2595;53.584;10.084;2022-08-21T13:21:51;1.60;;;1.33;;
5153;SDS011;2595;53.584;10.084;2022-08-21T13:24:24;1.93;;;1.40;;
5153;SDS011;2595;53.584;10.084;2022-08-21T13:26:52;2.00;;;1.90;;
5153;SDS011;2595;53.584;10.084;2022-08-21T13:29:20;2.00;;;1.73;;
5153;SDS011;2595;53.584;10.084;2022-08-21T13:31:48;2.87;;;1.70;;
5153;SDS011;2595;53.584;10.084;2022-08-21T13:34:17;1.47;;;1.37;;
5153;SDS011;2595;53.584;10.084;2022-08-21T13:36:50;3.00;;;1.53;;
5153;SDS011;2595;53.584;10.084;2022-08-21T13:39:19;2.13;;;1.93;;
5153;SDS011;2595;53.584;10.084;2022-08-21T13:41:46;1.87;;;1.20;;
5153;SDS011;2595;53.584;10.084;2022-08-21T13:44:21;2.07;;;1.40;;
5153;SDS011;2595;53.584;10.084;2022-08-21T13:46:51;1.83;;;1.50;;
5153;SDS011;2595;53.584;10.084;2022-08-21T13:49:19;2.17;;;1.50;;
5153;SDS011;2595;53.584;10.084;2022-08-21T13:51:51;2.67;;;1.43;;
5153;SDS011;2595;53.584;10.084;2022-08-21T13:54:22;1.47;;;1.37;;
5153;SDS011;2595;53.584;10.084;2022-08-21T13:56:58;1.73;;;1.50;;
5153;SDS011;2595;53.584;10.084;2022-08-21T13:59:34;1.47;;;1.33;;
5153;SDS011;2595;53.584;10.084;2022-08-21T14:02:02;2.00;;;1.67;;
5153;SDS011;2595;53.584;10.084;2022-08-21T14:05:02;1.70;;;1.60;;
5153;SDS011;2595;53.584;10.084;2022-08-21T14:07:36;2.33;;;1.93;;
5153;SDS011;2595;53.584;10.084;2022-08-21T14:10:15;1.60;;;1.50;;
5153;SDS011;2595;53.584;10.084;2022-08-21T14:12:53;2.07;;;1.87;;
5153;SDS011;2595;53.584;10.084;2022-08-21T14:15:24;3.33;;;2.00;;
5153;SDS011;2595;53.584;10.084;2022-08-21T14:17:53;1.50;;;1.40;;
5153;SDS011;2595;53.584;10.084;2022-08-21T14:20:27;3.77;;;1.70;;
5153;SDS011;2595;53.584;10.084;2022-08-21T14:22:56;3.63;;;1.70;;
5153;SDS011;2595;53.584;10.084;2022-08-21T14:30:19;1.50;;;1.40;;
5153;SDS011;2595;53.584;10.084;2022-08-21T14:32:51;3.00;;;1.60;;
5153;SDS011;2595;53.584;10.084;2022-08-21T14:35:18;1.53;;;1.40;;
5153;SDS011;2595;53.584;10.084;2022-08-21T14:37:46;2.70;;;2.40;;
5153;SDS011;2595;53.584;10.084;2022-08-21T14:40:12;2.20;;;1.70;;
5153;SDS011;2595;53.584;10.084;2022-08-21T14:42:39;2.47;;;2.27;;
5153;SDS011;2595;53.584;10.084;2022-08-21T14:45:16;2.73;;;1.40;;
5153;SDS011;2595;53.584;10.084;2022-08-21T14:47:41;1.70;;;1.60;;
5153;SDS011;2595;53.584;10.084;2022-08-21T14:50:08;1.40;;;1.30;;
5153;SDS011;2595;53.584;10.084;2022-08-21T14:52:35;2.47;;;1.50;;
5153;SDS011;2595;53.584;10.084;2022-08-21T14:55:01;1.83;;;1.60;;
5153;SDS011;2595;53.584;10.084;2022-08-21T14:57:29;2.10;;;1.90;;
5153;SDS011;2595;53.584;10.084;2022-08-21T14:59:55;2.37;;;1.90;;
5153;SDS011;2595;53.584;10.084;2022-08-21T15:02:21;1.90;;;1.63;;
5153;SDS011;2595;53.584;10.084;2022-08-21T15:04:47;1.70;;;1.60;;
5153;SDS011;2595;53.584;10.084;2022-08-21T15:07:12;2.23;;;2.03;;
5153;SDS011;2595;53.584;10.084;2022-08-21T15:09:38;1.80;;;1.70;;
5153;SDS011;2595;53.584;10.084;2022-08-21T15:12:04;5.73;;;1.87;;
5153;SDS011;2595;53.584;10.084;2022-08-21T15:14:32;1.90;;;1.80;;
5153;SDS011;2595;53.584;10.084;2022-08-21T15:17:01;2.73;;;2.13;;
5153;SDS011;2595;53.584;10.084;2022-08-21T15:19:28;1.67;;;1.30;;
5153;SDS011;2595;53.584;10.084;2022-08-21T15:21:55;3.00;;;1.40;;
5153;SDS011;2595;53.584;10.084;2022-08-21T15:24:20;1.90;;;1.80;;
5153;SDS011;2595;53.584;10.084;2022-08-21T15:26:46;2.23;;;1.90;;
5153;SDS011;2595;53.584;10.084;2022-08-21T15:29:12;2.13;;;1.60;;
5153;SDS011;2595;53.584;10.084;2022-08-21T15:31:49;2.00;;;1.60;;
5153;SDS011;2595;53.584;10.084;2022-08-21T15:34:23;1.70;;;1.60;;
5153;SDS011;2595;53.584;10.084;2022-08-21T15:36:50;3.90;;;1.47;;
5153;SDS011;2595;53.584;10.084;2022-08-21T15:39:15;1.80;;;1.40;;
5153;SDS011;2595;53.584;10.084;2022-08-21T15:41:41;2.00;;;1.80;;
5153;SDS011;2595;53.584;10.084;2022-08-21T15:44:08;2.27;;;1.80;;
5153;SDS011;2595;53.584;10.084;2022-08-21T15:46:36;2.50;;;2.10;;
5153;SDS011;2595;53.584;10.084;2022-08-21T15:49:02;1.93;;;1.63;;
5153;SDS011;2595;53.584;10.084;2022-08-21T15:51:28;1.93;;;1.50;;
5153;SDS011;2595;53.584;10.084;2022-08-21T15:53:53;1.90;;;1.20;;
5153;SDS011;2595;53.584;10.084;2022-08-21T15:56:21;1.73;;;1.50;;
5153;SDS011;2595;53.584;10.084;2022-08-21T15:58:49;2.20;;;1.60;;
5153;SDS011;2595;53.584;10.084;2022-08-21T16:01:17;1.60;;;1.50;;
5153;SDS011;2595;53.584;10.084;2022-08-21T16:03:43;1.87;;;1.30;;
5153;SDS011;2595;53.584;10.084;2022-08-21T16:06:13;2.03;;;1.93;;
5153;SDS011;2595;53.584;10.084;2022-08-21T16:08:39;2.17;;;1.57;;
5153;SDS011;2595;53.584;10.084;2022-08-21T16:11:04;1.60;;;1.43;;
5153;SDS011;2595;53.584;10.084;2022-08-21T16:13:36;2.40;;;1.77;;
5153;SDS011;2595;53.584;10.084;2022-08-21T16:16:07;6.93;;;2.03;;
5153;SDS011;2595;53.584;10.084;2022-08-21T16:18:38;2.63;;;1.97;;
5153;SDS011;2595;53.584;10.084;2022-08-21T16:21:04;1.90;;;1.50;;
5153;SDS011;2595;53.584;10.084;2022-08-21T16:23:30;2.23;;;1.33;;
5153;SDS011;2595;53.584;10.084;2022-08-21T16:25:57;1.87;;;1.77;;
5153;SDS011;2595;53.584;10.084;2022-08-21T16:28:24;2.13;;;1.50;;
5153;SDS011;2595;53.584;10.084;2022-08-21T16:30:50;1.50;;;1.40;;
5153;SDS011;2595;53.584;10.084;2022-08-21T16:35:48;2.10;;;1.77;;
5153;SDS011;2595;53.584;10.084;2022-08-21T16:38:15;2.27;;;1.60;;